Time;durP1;ratioP1;P1;durP2;ratioP2;P2;SDS_P1;SDS_P2;PMS_P1;PMS_P2;Temp;Humidity;BMP_temperature;BMP_pressure;BME280_temperature;BME280_humidity;BME280_pressure;Samples;Min_cycle;Max_cycle;Signal;HPM_P1;HPM_P2
2023/06/18 00:02:02;;;;;;;9.17;8.37;;;18.20;93.50;;;;;;5048273;28;20201;-54
2023/06/18 00:04:29;;;;;;;9.77;8.97;;;18.20;93.90;;;;;;5043456;28;20229;-54
2023/06/18 00:06:57;;;;;;;9.93;9.10;;;18.20;94.10;;;;;;5047864;28;20194;-54
2023/06/18 00:09:26;;;;;;;9.73;9.03;;;18.10;94.00;;;;;;5048711;28;20237;-54
2023/06/18 00:11:53;;;;;;;10.90;9.87;;;18.10;94.20;;;;;;5048270;28;20198;-54
2023/06/18 00:14:20;;;;;;;10.07;9.33;;;18.10;94.60;;;;;;5047202;28;20225;-54
2023/06/18 00:16:47;;;;;;;9.67;8.87;;;18.00;94.50;;;;;;5046408;28;20194;-54
2023/06/18 00:19:14;;;;;;;9.63;8.83;;;18.00;94.60;;;;;;5048272;28;20327;-54
2023/06/18 00:21:41;;;;;;;10.33;9.33;;;17.90;94.50;;;;;;5048152;28;20668;-54
2023/06/18 00:24:08;;;;;;;8.83;8.00;;;17.90;95.00;;;;;;5044137;28;20245;-54
2023/06/18 00:26:36;;;;;;;9.37;8.57;;;17.80;95.00;;;;;;5048024;28;20197;-54
2023/06/18 00:29:03;;;;;;;10.93;9.37;;;17.80;95.10;;;;;;5048795;28;20249;-54
2023/06/18 00:31:32;;;;;;;10.23;9.53;;;17.80;94.80;;;;;;5052305;28;20206;-54
2023/06/18 00:34:04;;;;;;;10.43;9.30;;;17.80;94.80;;;;;;5050423;28;20335;-54
2023/06/18 00:36:32;;;;;;;10.57;9.67;;;17.80;94.90;;;;;;5051966;28;20202;-54
2023/06/18 00:38:59;;;;;;;8.53;7.73;;;17.80;95.20;;;;;;5051545;28;20282;-54
2023/06/18 00:41:27;;;;;;;9.27;8.63;;;17.80;94.60;;;;;;5049740;28;20251;-54
2023/06/18 00:43:57;;;;;;;9.20;8.40;;;17.80;94.70;;;;;;5050750;28;20218;-54
2023/06/18 00:46:25;;;;;;;8.17;7.60;;;17.70;94.80;;;;;;5049596;28;20197;-54
2023/06/18 00:48:53;;;;;;;9.00;8.27;;;17.70;95.20;;;;;;5049194;28;20300;-54
2023/06/18 00:51:22;;;;;;;8.63;7.93;;;17.70;95.40;;;;;;5051144;28;20677;-54
2023/06/18 00:53:50;;;;;;;9.60;8.73;;;17.60;96.00;;;;;;5050369;28;20320;-54
2023/06/18 00:56:17;;;;;;;8.97;8.27;;;17.60;96.10;;;;;;5051104;28;20655;-54
2023/06/18 00:58:47;;;;;;;8.67;7.97;;;17.50;95.70;;;;;;5049931;28;20202;-54
2023/06/18 01:01:16;;;;;;;9.27;8.27;;;17.60;95.40;;;;;;5050513;28;20202;-54
2023/06/18 01:03:47;;;;;;;9.63;8.80;;;17.50;95.60;;;;;;5050575;28;20230;-54
2023/06/18 01:06:17;;;;;;;9.77;8.97;;;17.50;95.50;;;;;;5049632;28;20206;-54
2023/06/18 01:08:48;;;;;;;9.43;8.53;;;17.50;95.60;;;;;;5051160;28;20743;-55
2023/06/18 01:11:18;;;;;;;9.23;8.63;;;17.50;95.70;;;;;;5048204;28;20198;-54
2023/06/18 01:13:46;;;;;;;9.00;8.27;;;17.40;95.30;;;;;;5050607;28;20228;-53
2023/06/18 01:16:14;;;;;;;9.60;8.80;;;17.50;95.20;;;;;;5048015;28;20247;-52
2023/06/18 01:18:46;;;;;;;9.43;8.57;;;17.50;95.40;;;;;;5049531;28;20295;-52
2023/06/18 01:21:18;;;;;;;10.87;8.47;;;17.50;95.10;;;;;;5042498;28;20287;-52
2023/06/18 01:23:57;;;;;;;9.03;8.23;;;17.50;95.10;;;;;;5050830;28;20256;-52
2023/06/18 01:26:26;;;;;;;8.10;7.53;;;17.60;94.90;;;;;;5046596;28;20229;-52
2023/06/18 01:28:58;;;;;;;9.30;8.50;;;17.60;95.20;;;;;;5050686;28;20639;-52
2023/06/18 01:31:26;;;;;;;9.67;8.30;;;17.60;95.00;;;;;;5051772;28;20243;-52
2023/06/18 01:33:54;;;;;;;11.70;10.70;;;17.50;95.40;;;;;;5050461;28;20307;-52
2023/06/18 01:36:30;;;;;;;10.77;9.70;;;17.50;95.70;;;;;;5050700;28;20201;-54
2023/06/18 01:39:07;;;;;;;11.17;10.07;;;17.50;96.00;;;;;;5048392;28;20193;-52
2023/06/18 01:41:37;;;;;;;10.37;9.47;;;17.30;96.60;;;;;;5050617;28;20605;-52
2023/06/18 01:44:08;;;;;;;11.33;10.33;;;17.20;96.80;;;;;;5048904;28;20221;-52
2023/06/18 01:46:35;;;;;;;11.47;10.40;;;17.10;97.00;;;;;;5050828;28;20582;-52
2023/06/18 01:49:07;;;;;;;12.33;11.23;;;17.10;97.30;;;;;;5050347;28;20221;-52
2023/06/18 01:51:37;;;;;;;11.10;9.90;;;17.10;97.20;;;;;;5044488;28;20225;-52
2023/06/18 01:54:07;;;;;;;10.87;10.03;;;17.10;97.20;;;;;;5049873;28;20568;-54
2023/06/18 01:56:34;;;;;;;11.60;10.43;;;17.10;97.30;;;;;;5048119;28;20205;-54
2023/06/18 01:59:03;;;;;;;9.67;8.87;;;17.10;97.20;;;;;;5050388;28;20250;-52
2023/06/18 02:01:31;;;;;;;9.43;8.57;;;17.10;97.00;;;;;;5045779;28;20198;-52
2023/06/18 02:03:58;;;;;;;8.30;7.60;;;17.10;97.00;;;;;;5050715;28;20249;-52
2023/06/18 02:06:26;;;;;;;9.57;8.73;;;17.10;97.10;;;;;;5049298;28;20201;-52
2023/06/18 02:08:53;;;;;;;9.87;9.00;;;17.10;97.00;;;;;;5050397;28;20268;-54
2023/06/18 02:11:20;;;;;;;11.27;8.60;;;17.10;97.00;;;;;;5047741;28;20677;-52
2023/06/18 02:13:47;;;;;;;8.83;8.13;;;17.10;97.00;;;;;;5049771;28;20760;-52
2023/06/18 02:16:14;;;;;;;8.80;8.13;;;17.10;96.30;;;;;;5049445;28;20872;-51
2023/06/18 02:18:41;;;;;;;8.20;7.60;;;17.30;96.10;;;;;;5050177;28;20197;-54
2023/06/18 02:21:08;;;;;;;9.13;8.33;;;17.30;96.40;;;;;;5048523;28;20205;-53
2023/06/18 02:23:37;;;;;;;8.50;7.80;;;17.30;96.20;;;;;;5048672;28;20606;-52
2023/06/18 02:26:04;;;;;;;9.23;8.43;;;17.40;96.00;;;;;;5048407;28;20307;-52
2023/06/18 02:28:30;;;;;;;8.60;7.57;;;17.40;96.00;;;;;;5048884;28;20249;-52
2023/06/18 02:30:57;;;;;;;8.40;7.80;;;17.40;95.80;;;;;;5050513;28;20261;-52
2023/06/18 02:33:25;;;;;;;7.07;6.67;;;17.30;95.90;;;;;;5048234;28;20267;-52
2023/06/18 02:35:52;;;;;;;9.77;8.97;;;17.30;96.10;;;;;;5047609;28;20253;-54
2023/06/18 02:38:20;;;;;;;9.43;8.73;;;17.30;96.20;;;;;;5050119;28;20656;-52
2023/06/18 02:40:48;;;;;;;8.43;7.83;;;17.30;96.20;;;;;;5048535;28;20194;-52
2023/06/18 02:43:15;;;;;;;8.57;7.83;;;17.30;96.00;;;;;;5044981;28;20306;-52
2023/06/18 02:45:42;;;;;;;8.40;7.70;;;17.30;96.30;;;;;;5049215;28;20274;-54
2023/06/18 02:48:09;;;;;;;8.40;7.80;;;17.30;96.50;;;;;;5049476;28;20706;-52
2023/06/18 02:50:36;;;;;;;8.37;7.77;;;17.20;96.50;;;;;;5046885;28;20647;-54
2023/06/18 02:53:03;;;;;;;9.20;8.37;;;17.20;96.30;;;;;;5048049;28;20221;-54
2023/06/18 02:55:31;;;;;;;9.53;8.60;;;17.20;96.50;;;;;;5048764;28;20663;-54
2023/06/18 02:58:00;;;;;;;8.73;7.90;;;17.20;96.40;;;;;;5045870;28;20205;-52
2023/06/18 03:00:27;;;;;;;8.77;8.07;;;17.30;96.30;;;;;;5050632;28;20695;-52
2023/06/18 03:02:55;;;;;;;8.60;7.87;;;17.20;96.50;;;;;;5047231;28;20198;-52
2023/06/18 03:05:22;;;;;;;9.63;8.93;;;17.10;96.90;;;;;;5048350;28;20682;-52
2023/06/18 03:07:48;;;;;;;9.37;8.60;;;17.00;97.30;;;;;;5048952;28;20202;-52
2023/06/18 03:10:15;;;;;;;9.33;8.63;;;16.90;97.70;;;;;;5045537;28;20268;-52
2023/06/18 03:12:42;;;;;;;9.67;8.83;;;16.80;97.90;;;;;;5047893;28;20362;-52
2023/06/18 03:15:11;;;;;;;9.07;8.17;;;16.80;98.30;;;;;;5050582;28;20222;-52
2023/06/18 03:17:38;;;;;;;9.37;8.47;;;16.70;98.20;;;;;;5048693;28;20201;-52
2023/06/18 03:20:07;;;;;;;9.57;8.83;;;16.70;98.60;;;;;;5046598;28;20275;-52
2023/06/18 03:22:34;;;;;;;8.67;7.97;;;16.70;98.00;;;;;;5046909;28;20733;-52
2023/06/18 03:25:01;;;;;;;8.97;8.17;;;16.80;97.60;;;;;;5049456;28;20560;-52
2023/06/18 03:27:28;;;;;;;9.00;8.40;;;16.90;97.50;;;;;;5046963;28;20652;-52
2023/06/18 03:29:56;;;;;;;9.47;8.57;;;16.90;97.40;;;;;;5049172;28;20248;-53
2023/06/18 03:32:26;;;;;;;9.40;8.53;;;16.90;97.90;;;;;;5048480;28;20772;-52
2023/06/18 03:34:53;;;;;;;7.77;7.23;;;16.90;97.60;;;;;;5049443;28;20217;-52
2023/06/18 03:37:21;;;;;;;8.90;8.13;;;16.90;97.80;;;;;;5049034;28;20667;-52
2023/06/18 03:39:48;;;;;;;7.67;7.17;;;17.00;97.70;;;;;;5055610;28;20367;-53
2023/06/18 03:42:15;;;;;;;8.47;7.73;;;17.00;97.60;;;;;;5051354;28;20197;-52
2023/06/18 03:44:42;;;;;;;8.80;8.13;;;17.00;97.60;;;;;;5048570;28;20738;-52
2023/06/18 03:47:09;;;;;;;7.57;7.07;;;17.10;97.50;;;;;;5039458;28;20201;-52
2023/06/18 03:49:38;;;;;;;8.57;7.97;;;17.00;97.70;;;;;;5048574;28;20667;-52
2023/06/18 03:52:05;;;;;;;7.37;6.80;;;17.00;97.80;;;;;;5049232;28;20279;-52
2023/06/18 03:54:32;;;;;;;9.33;7.07;;;17.00;98.10;;;;;;5046928;28;20249;-52
2023/06/18 03:57:00;;;;;;;8.40;7.80;;;16.90;98.40;;;;;;5048377;28;20542;-52
2023/06/18 03:59:27;;;;;;;9.67;8.77;;;16.90;98.10;;;;;;5047836;28;20217;-52
2023/06/18 04:01:54;;;;;;;8.10;7.60;;;16.90;98.60;;;;;;5046903;28;20206;-53
2023/06/18 04:04:21;;;;;;;8.70;7.90;;;16.90;98.80;;;;;;5044530;28;20294;-53
2023/06/18 04:06:49;;;;;;;8.20;7.60;;;17.00;98.90;;;;;;5046266;28;20729;-52
2023/06/18 04:09:16;;;;;;;9.37;8.53;;;16.90;99.10;;;;;;5048535;28;20229;-52
2023/06/18 04:11:45;;;;;;;8.33;7.77;;;16.80;98.50;;;;;;5049092;28;20214;-52
2023/06/18 04:14:12;;;;;;;8.70;7.87;;;16.90;98.50;;;;;;5043911;28;20224;-52
2023/06/18 04:16:39;;;;;;;9.00;8.40;;;16.90;98.50;;;;;;5048243;28;20887;-53
2023/06/18 04:19:06;;;;;;;8.23;7.63;;;17.00;98.20;;;;;;5047766;28;20282;-52
2023/06/18 04:21:34;;;;;;;8.83;8.13;;;17.00;98.30;;;;;;5046911;28;20279;-53
2023/06/18 04:24:03;;;;;;;8.20;7.60;;;17.00;98.20;;;;;;5045866;28;20308;-52
2023/06/18 04:26:30;;;;;;;9.30;8.47;;;17.10;98.60;;;;;;5047636;28;20198;-52
2023/06/18 04:28:57;;;;;;;8.53;7.93;;;17.10;98.60;;;;;;5047430;28;20190;-52
2023/06/18 04:31:25;;;;;;;8.33;7.63;;;17.20;98.60;;;;;;5048676;28;20202;-52
2023/06/18 04:33:52;;;;;;;8.67;7.87;;;17.20;98.70;;;;;;5047577;28;20679;-52
2023/06/18 04:36:19;;;;;;;8.70;7.93;;;17.30;98.60;;;;;;5048172;28;20202;-52
2023/06/18 04:38:45;;;;;;;8.37;7.67;;;17.40;98.30;;;;;;5042783;28;20201;-52
2023/06/18 04:41:14;;;;;;;7.33;6.83;;;17.40;98.10;;;;;;5046491;28;20198;-52
2023/06/18 04:43:41;;;;;;;8.30;7.60;;;17.50;98.20;;;;;;5046434;28;20213;-52
2023/06/18 04:46:08;;;;;;;8.57;7.80;;;17.50;97.50;;;;;;5049513;28;20530;-52
2023/06/18 04:48:35;;;;;;;7.53;7.00;;;17.70;98.30;;;;;;5046378;28;20244;-52
2023/06/18 04:51:02;;;;;;;7.40;6.90;;;17.70;97.50;;;;;;5049383;28;20198;-52
2023/06/18 04:53:30;;;;;;;7.40;7.00;;;17.80;97.60;;;;;;5045784;28;20224;-53
2023/06/18 04:55:57;;;;;;;8.20;7.70;;;17.80;96.90;;;;;;5045105;28;20329;-52
2023/06/18 04:58:25;;;;;;;7.50;6.80;;;18.00;97.20;;;;;;5048974;28;20249;-52
2023/06/18 05:00:52;;;;;;;7.60;7.00;;;18.10;97.60;;;;;;5047118;28;20233;-52
2023/06/18 05:03:19;;;;;;;7.73;7.13;;;18.20;97.00;;;;;;5046276;28;20312;-52
2023/06/18 05:05:46;;;;;;;8.17;7.47;;;18.40;96.90;;;;;;5048979;28;20194;-52
2023/06/18 05:08:13;;;;;;;8.50;6.80;;;18.50;96.90;;;;;;5048153;28;20205;-52
2023/06/18 05:10:40;;;;;;;6.97;6.57;;;18.70;97.00;;;;;;5040017;28;20664;-52
2023/06/18 05:13:07;;;;;;;8.73;8.17;;;18.90;97.30;;;;;;5049385;28;20374;-52
2023/06/18 05:15:35;;;;;;;7.33;6.73;;;19.20;97.00;;;;;;5052835;28;20261;-53
2023/06/18 05:18:02;;;;;;;7.80;7.10;;;19.50;96.80;;;;;;5052446;28;20335;-52
2023/06/18 05:20:29;;;;;;;7.80;7.30;;;20.00;96.80;;;;;;5040686;28;20372;-53
2023/06/18 05:22:56;;;;;;;8.23;7.53;;;20.60;96.00;;;;;;5048377;28;20204;-52
2023/06/18 05:25:23;;;;;;;8.33;7.53;;;21.10;94.50;;;;;;5046613;28;20198;-52
2023/06/18 05:27:50;;;;;;;6.63;6.17;;;21.70;95.60;;;;;;5049269;28;20202;-53
2023/06/18 05:30:17;;;;;;;6.80;6.37;;;22.30;94.30;;;;;;5049779;28;20255;-53
2023/06/18 05:32:45;;;;;;;6.80;6.30;;;22.90;92.80;;;;;;5051357;28;20529;-52
2023/06/18 05:35:12;;;;;;;7.80;7.10;;;23.50;91.70;;;;;;5052187;28;20232;-53
2023/06/18 05:37:39;;;;;;;7.47;6.90;;;24.00;92.80;;;;;;5052006;28;20205;-53
2023/06/18 05:40:08;;;;;;;7.60;7.00;;;24.30;92.90;;;;;;5052071;28;20218;-53
2023/06/18 05:42:35;;;;;;;7.17;6.77;;;24.90;92.30;;;;;;5042364;28;20213;-54
2023/06/18 05:45:02;;;;;;;6.73;6.43;;;25.00;91.60;;;;;;5049944;28;21570;-53
2023/06/18 05:47:29;;;;;;;6.73;6.20;;;25.40;91.30;;;;;;5051705;28;20663;-53
2023/06/18 05:49:57;;;;;;;7.43;6.97;;;25.40;92.00;;;;;;5052015;28;20193;-53
2023/06/18 05:52:24;;;;;;;6.97;6.47;;;25.40;90.00;;;;;;5044605;28;20210;-53
2023/06/18 05:54:51;;;;;;;7.33;6.83;;;25.60;90.40;;;;;;5049256;28;20221;-53
2023/06/18 05:57:18;;;;;;;6.83;6.33;;;26.00;90.40;;;;;;5050675;28;20609;-53
2023/06/18 05:59:47;;;;;;;6.40;6.00;;;26.20;87.20;;;;;;5051117;28;20558;-53
2023/06/18 06:02:14;;;;;;;7.90;7.33;;;26.70;88.00;;;;;;5051570;28;20206;-53
2023/06/18 06:04:41;;;;;;;6.60;6.30;;;27.10;87.00;;;;;;5050234;28;20221;-54
2023/06/18 06:07:09;;;;;;;6.43;5.83;;;27.40;88.00;;;;;;5046874;28;21538;-53
2023/06/18 06:09:36;;;;;;;6.87;6.37;;;27.60;86.30;;;;;;5050207;28;20216;-54
2023/06/18 06:12:04;;;;;;;8.10;7.50;;;28.10;82.90;;;;;;5047089;28;20234;-53
2023/06/18 06:14:31;;;;;;;6.97;6.45;;;28.50;85.20;;;;;;5046968;28;20218;-53
2023/06/18 06:16:58;;;;;;;6.40;5.97;;;28.10;79.40;;;;;;5042986;28;20279;-53
2023/06/18 06:19:25;;;;;;;5.60;5.32;;;28.20;84.20;;;;;;5050910;28;20198;-53
2023/06/18 06:21:52;;;;;;;7.30;5.90;;;28.40;82.70;;;;;;5051300;28;20233;-53
2023/06/18 06:24:20;;;;;;;6.53;6.05;;;28.60;81.20;;;;;;5048736;28;20721;-53
2023/06/18 06:26:47;;;;;;;7.53;6.95;;;28.70;80.60;;;;;;5050457;28;20198;-54
2023/06/18 06:29:14;;;;;;;7.47;6.75;;;29.00;79.50;;;;;;5049889;28;20618;-53
2023/06/18 06:31:41;;;;;;;6.50;6.00;;;28.80;78.10;;;;;;5051139;28;20273;-53
2023/06/18 06:34:08;;;;;;;7.05;6.65;;;28.60;78.90;;;;;;5050553;28;20784;-53
2023/06/18 06:36:35;;;;;;;6.90;6.35;;;28.50;79.10;;;;;;5050861;28;20210;-53
2023/06/18 06:39:03;;;;;;;5.80;5.50;;;28.80;78.40;;;;;;5050680;28;20206;-53
2023/06/18 06:41:31;;;;;;;5.90;5.60;;;28.90;79.10;;;;;;5050552;28;20330;-53
2023/06/18 06:43:59;;;;;;;6.53;6.05;;;29.00;78.90;;;;;;5049512;28;20291;-53
2023/06/18 06:46:25;;;;;;;6.00;5.70;;;29.10;78.30;;;;;;5048961;28;20202;-54
2023/06/18 06:48:53;;;;;;;7.20;6.70;;;28.90;74.70;;;;;;5048281;28;20198;-53
2023/06/18 06:51:20;;;;;;;7.20;6.63;;;29.20;78.60;;;;;;5040316;28;20205;-53
2023/06/18 06:53:47;;;;;;;6.82;6.43;;;29.50;77.60;;;;;;5050637;28;20213;-54
2023/06/18 06:56:14;;;;;;;6.45;6.15;;;29.70;78.40;;;;;;5044652;28;20194;-54
2023/06/18 06:58:42;;;;;;;5.85;5.57;;;30.00;77.00;;;;;;5043745;28;20194;-53
2023/06/18 07:01:09;;;;;;;7.07;6.53;;;29.70;74.80;;;;;;5038090;28;20214;-53
2023/06/18 07:03:36;;;;;;;6.53;6.10;;;29.90;79.90;;;;;;5049970;28;20222;-53
2023/06/18 07:06:06;;;;;;;6.22;5.72;;;29.70;77.90;;;;;;5049886;28;20208;-53
2023/06/18 07:08:33;;;;;;;6.50;6.20;;;30.10;76.00;;;;;;5048330;28;20201;-53
2023/06/18 07:11:00;;;;;;;6.88;6.28;;;30.30;75.80;;;;;;5040495;28;20279;-54
2023/06/18 07:13:27;;;;;;;7.22;6.70;;;30.20;75.90;;;;;;5043189;28;20225;-53
2023/06/18 07:15:56;;;;;;;6.90;6.30;;;29.80;75.00;;;;;;5043339;28;20202;-53
2023/06/18 07:18:25;;;;;;;6.65;6.15;;;29.80;79.60;;;;;;5046086;28;20193;-53
2023/06/18 07:20:52;;;;;;;6.32;6.03;;;29.80;74.50;;;;;;5047114;28;20226;-53
2023/06/18 07:23:19;;;;;;;6.70;6.20;;;30.20;79.80;;;;;;5044618;28;20215;-53
2023/06/18 07:25:46;;;;;;;7.18;6.55;;;30.20;75.70;;;;;;5043757;28;20290;-53
2023/06/18 07:28:17;;;;;;;7.40;6.82;;;30.30;75.80;;;;;;5048153;28;20294;-53
2023/06/18 07:30:44;;;;;;;7.10;6.50;;;30.90;77.30;;;;;;5047821;28;20679;-53
2023/06/18 07:33:12;;;;;;;6.07;5.68;;;31.40;74.90;;;;;;5046629;28;20706;-53
2023/06/18 07:35:39;;;;;;;6.13;5.72;;;32.00;76.00;;;;;;5044699;28;20225;-53
2023/06/18 07:38:06;;;;;;;6.25;5.85;;;32.40;71.50;;;;;;5048623;28;20741;-53
2023/06/18 07:40:36;;;;;;;6.13;5.70;;;32.00;75.60;;;;;;5048140;28;20304;-53
2023/06/18 07:43:04;;;;;;;6.65;6.32;;;32.20;73.00;;;;;;5046054;28;20228;-53
2023/06/18 07:45:31;;;;;;;6.70;6.30;;;31.80;72.60;;;;;;5048393;28;20198;-53
2023/06/18 07:47:58;;;;;;;6.70;6.35;;;31.80;70.50;;;;;;5048009;28;20672;-53
2023/06/18 07:50:27;;;;;;;6.20;5.90;;;32.00;71.70;;;;;;5048173;28;20684;-54
2023/06/18 07:52:54;;;;;;;6.45;6.10;;;32.10;70.80;;;;;;5041712;28;20272;-54
2023/06/18 07:55:21;;;;;;;6.63;6.32;;;32.40;74.10;;;;;;5046971;28;20617;-53
2023/06/18 07:57:48;;;;;;;6.50;6.05;;;32.30;73.60;;;;;;5047740;28;20201;-54
2023/06/18 08:00:16;;;;;;;7.35;6.80;;;32.30;73.90;;;;;;5048724;28;20264;-54
2023/06/18 08:02:44;;;;;;;6.40;5.90;;;32.80;72.70;;;;;;5046519;28;20209;-54
2023/06/18 08:05:11;;;;;;;7.13;6.72;;;32.40;74.10;;;;;;5033972;28;20234;-54
2023/06/18 08:07:40;;;;;;;6.35;5.82;;;32.80;68.80;;;;;;5043223;28;20198;-53
2023/06/18 08:10:08;;;;;;;6.50;6.20;;;33.30;70.40;;;;;;5049625;28;20747;-54
2023/06/18 08:12:35;;;;;;;6.20;5.93;;;33.60;71.60;;;;;;5048295;28;20577;-54
2023/06/18 08:15:02;;;;;;;7.53;6.97;;;33.70;71.20;;;;;;5045155;28;20222;-54
2023/06/18 08:17:29;;;;;;;6.18;5.93;;;34.00;73.00;;;;;;5048347;28;20320;-54
2023/06/18 08:19:56;;;;;;;6.20;5.95;;;33.70;68.60;;;;;;5048630;28;20220;-54
2023/06/18 08:22:27;;;;;;;6.75;6.25;;;33.80;66.70;;;;;;5046710;28;20222;-54
2023/06/18 08:24:55;;;;;;;6.50;6.20;;;33.80;69.70;;;;;;5046722;28;20304;-54
2023/06/18 08:27:25;;;;;;;6.57;6.15;;;33.90;67.30;;;;;;5045123;28;20666;-54
2023/06/18 08:29:52;;;;;;;6.45;5.97;;;33.90;68.50;;;;;;5049515;28;20606;-53
2023/06/18 08:32:19;;;;;;;6.47;6.07;;;34.30;70.50;;;;;;5049164;28;20198;-54
2023/06/18 08:34:46;;;;;;;7.25;6.75;;;33.70;69.90;;;;;;5046818;28;20682;-54
2023/06/18 08:37:14;;;;;;;7.10;6.57;;;33.40;61.80;;;;;;5049297;28;20202;-54
2023/06/18 08:39:41;;;;;;;7.00;6.60;;;33.40;68.70;;;;;;5049326;28;20217;-54
2023/06/18 08:42:09;;;;;;;6.88;6.45;;;33.50;65.90;;;;;;5045989;28;20248;-53
2023/06/18 08:44:36;;;;;;;6.38;5.90;;;33.70;63.50;;;;;;5048715;28;20243;-54
2023/06/18 08:47:05;;;;;;;7.30;6.78;;;34.00;70.20;;;;;;5048179;28;20232;-54
2023/06/18 08:49:32;;;;;;;6.30;6.00;;;33.70;66.20;;;;;;5045918;28;20202;-54
2023/06/18 08:52:06;;;;;;;7.18;6.78;;;33.60;62.80;;;;;;5049256;28;20297;-54
2023/06/18 08:54:34;;;;;;;8.35;7.85;;;33.60;66.50;;;;;;5041280;28;20288;-54
2023/06/18 08:57:08;;;;;;;8.43;7.90;;;34.10;71.50;;;;;;5041192;28;20244;-54
2023/06/18 08:59:38;;;;;;;7.72;7.32;;;34.00;69.90;;;;;;5049696;28;20197;-54
2023/06/18 09:02:07;;;;;;;7.82;7.32;;;34.10;73.40;;;;;;5052723;28;20655;-53
2023/06/18 09:04:36;;;;;;;8.15;7.60;;;33.60;74.70;;;;;;5052626;28;20232;-54
2023/06/18 09:07:04;;;;;;;9.18;8.48;;;33.60;77.20;;;;;;5045957;28;20212;-54
2023/06/18 09:09:31;;;;;;;9.60;8.93;;;33.80;71.60;;;;;;5049826;28;20267;-54
2023/06/18 09:11:58;;;;;;;9.07;8.55;;;33.90;76.20;;;;;;5051864;28;20197;-53
2023/06/18 09:14:25;;;;;;;8.45;7.65;;;34.00;79.50;;;;;;5052718;28;20214;-54
2023/06/18 09:16:54;;;;;;;8.40;8.00;;;34.10;73.50;;;;;;5052816;28;20198;-54
2023/06/18 09:19:21;;;;;;;8.50;7.97;;;34.60;73.00;;;;;;5051437;28;20567;-54
2023/06/18 09:21:48;;;;;;;8.80;8.10;;;34.40;73.00;;;;;;5052209;28;20222;-54
2023/06/18 09:24:18;;;;;;;8.48;8.07;;;35.00;72.10;;;;;;5044816;28;20229;-54
2023/06/18 09:26:45;;;;;;;10.30;9.63;;;34.60;72.10;;;;;;5040442;28;20327;-53
2023/06/18 09:29:13;;;;;;;9.45;8.85;;;33.80;73.00;;;;;;5041123;28;20553;-53
2023/06/18 09:31:43;;;;;;;8.95;8.45;;;32.70;77.50;;;;;;5042124;28;20283;-53
2023/06/18 09:34:19;;;;;;;10.07;9.15;;;32.60;79.10;;;;;;5042810;28;20221;-54
2023/06/18 09:36:47;;;;;;;9.25;8.40;;;32.90;74.60;;;;;;5042187;28;20610;-53
2023/06/18 09:39:18;;;;;;;9.73;8.80;;;33.10;75.90;;;;;;5092743;22;20229;-55
2023/06/18 09:41:46;;;;;;;8.82;8.23;;;33.70;77.40;;;;;;5073089;28;20256;-55
2023/06/18 09:44:14;;;;;;;9.55;8.95;;;33.60;77.30;;;;;;5072282;28;20679;-55
2023/06/18 09:46:44;;;;;;;8.45;8.05;;;33.60;79.80;;;;;;5071368;28;20193;-55
2023/06/18 09:49:13;;;;;;;8.90;8.40;;;34.00;75.90;;;;;;5070931;28;20212;-55
2023/06/18 09:51:41;;;;;;;9.18;8.35;;;34.20;74.40;;;;;;5073056;28;20200;-56
2023/06/18 09:54:09;;;;;;;8.63;8.10;;;34.80;75.00;;;;;;5067213;28;20193;-56
2023/06/18 09:56:38;;;;;;;13.50;9.48;;;34.00;73.00;;;;;;5072425;28;20266;-55
2023/06/18 09:59:05;;;;;;;9.95;9.07;;;34.10;76.70;;;;;;5071464;28;20245;-55
2023/06/18 10:01:46;;;;;;;8.65;8.00;;;33.90;77.60;;;;;;5071745;28;20581;-55
2023/06/18 10:04:14;;;;;;;8.82;8.07;;;33.60;75.40;;;;;;5064766;28;20255;-55
2023/06/18 10:06:48;;;;;;;8.40;7.80;;;34.10;79.40;;;;;;5072774;28;20197;-55
2023/06/18 10:09:15;;;;;;;8.85;8.18;;;33.90;72.70;;;;;;5072282;28;20714;-56
2023/06/18 10:11:43;;;;;;;7.65;7.05;;;34.10;72.30;;;;;;5072628;28;20189;-54
2023/06/18 10:14:12;;;;;;;7.97;7.53;;;34.60;72.00;;;;;;5065166;28;20193;-55
2023/06/18 10:16:44;;;;;;;7.35;6.72;;;35.00;72.90;;;;;;5069257;28;20693;-55
2023/06/18 10:19:15;;;;;;;8.23;7.07;;;34.90;67.40;;;;;;5072141;28;20216;-55
2023/06/18 10:21:47;;;;;;;7.78;7.15;;;35.10;62.80;;;;;;5073152;28;20350;-55
2023/06/18 10:24:19;;;;;;;7.28;6.88;;;35.00;62.10;;;;;;5071848;28;20197;-55
2023/06/18 10:26:47;;;;;;;7.05;6.65;;;35.00;62.90;;;;;;5073087;28;20267;-55
2023/06/18 10:29:14;;;;;;;7.68;7.00;;;35.00;63.70;;;;;;5072665;28;20224;-55
2023/06/18 10:31:41;;;;;;;7.18;6.78;;;35.40;60.60;;;;;;5068672;28;20242;-55
2023/06/18 10:34:09;;;;;;;6.90;6.50;;;35.40;60.70;;;;;;5063841;28;20330;-55
2023/06/18 10:36:37;;;;;;;7.13;6.72;;;35.40;63.70;;;;;;5066856;28;20570;-55
2023/06/18 10:39:06;;;;;;;8.27;7.72;;;34.90;63.40;;;;;;5069535;28;20287;-55
2023/06/18 10:41:33;;;;;;;7.13;6.72;;;35.20;64.00;;;;;;5063215;28;20249;-55
2023/06/18 10:43:59;;;;;;;7.05;6.53;;;35.00;63.50;;;;;;5063961;28;20233;-55
2023/06/18 10:46:28;;;;;;;8.05;6.93;;;35.50;66.80;;;;;;5065833;28;20255;-55
2023/06/18 10:49:15;;;;;;;7.53;7.03;;;35.50;66.20;;;;;;5061240;28;20236;-55
2023/06/18 10:51:43;;;;;;;6.90;6.50;;;35.80;63.40;;;;;;5067738;28;20201;-55
2023/06/18 10:54:22;;;;;;;6.57;6.28;;;35.30;60.40;;;;;;5065786;28;20975;-55
2023/06/18 10:56:54;;;;;;;6.03;5.72;;;34.80;64.20;;;;;;5069262;28;20234;-55
2023/06/18 10:59:42;;;;;;;6.97;6.53;;;34.50;60.70;;;;;;5071311;28;20221;-54
2023/06/18 11:02:12;;;;;;;7.20;6.70;;;34.40;63.90;;;;;;5071415;28;20329;-54
2023/06/18 11:04:39;;;;;;;6.43;6.13;;;34.10;66.10;;;;;;5073111;28;20634;-55
2023/06/18 11:07:15;;;;;;;6.10;5.60;;;34.00;63.60;;;;;;5071276;28;20258;-54
2023/06/18 11:09:53;;;;;;;6.50;6.00;;;33.50;63.30;;;;;;5072214;28;20208;-54
2023/06/18 11:12:30;;;;;;;6.30;6.00;;;32.70;65.70;;;;;;5068729;28;20197;-55
2023/06/18 11:15:15;;;;;;;6.68;6.18;;;32.50;64.30;;;;;;5067235;28;20246;-55
2023/06/18 11:17:44;;;;;;;6.88;6.28;;;32.50;63.40;;;;;;5067996;28;20213;-55
2023/06/18 11:20:12;;;;;;;6.38;6.07;;;31.90;64.90;;;;;;5064929;28;20254;-55
2023/06/18 11:22:41;;;;;;;6.10;5.72;;;31.70;66.30;;;;;;5065294;28;20216;-55
2023/06/18 11:25:11;;;;;;;6.72;6.43;;;31.50;66.70;;;;;;5069354;28;20204;-54
2023/06/18 11:27:41;;;;;;;6.07;5.57;;;31.40;64.20;;;;;;5065633;28;20224;-65
2023/06/18 11:30:14;;;;;;;5.70;5.47;;;31.50;64.50;;;;;;5070646;28;20566;-64
2023/06/18 11:32:43;;;;;;;6.70;6.32;;;31.50;64.00;;;;;;5067643;28;20193;-61
2023/06/18 11:35:11;;;;;;;6.78;6.28;;;31.50;63.20;;;;;;5059168;28;20209;-61
2023/06/18 11:37:40;;;;;;;5.85;5.45;;;31.10;61.70;;;;;;5071718;28;20374;-61
2023/06/18 11:40:10;;;;;;;6.15;5.85;;;31.20;64.10;;;;;;5070395;28;20209;-61
2023/06/18 11:42:39;;;;;;;6.65;6.35;;;31.30;64.70;;;;;;5071461;28;20221;-60
2023/06/18 11:45:07;;;;;;;5.75;5.50;;;31.00;65.60;;;;;;5071493;28;20289;-58
2023/06/18 11:47:35;;;;;;;5.47;5.28;;;30.80;68.50;;;;;;5065623;28;20221;-61
2023/06/18 11:50:02;;;;;;;5.47;5.18;;;31.00;66.80;;;;;;5069407;28;20201;-62
2023/06/18 11:52:30;;;;;;;5.85;5.35;;;31.10;66.80;;;;;;5061760;28;20197;-61
2023/06/18 11:55:04;;;;;;;6.32;5.93;;;30.90;69.80;;;;;;5070240;28;20216;-59
2023/06/18 11:57:33;;;;;;;5.88;5.45;;;30.80;64.20;;;;;;5065025;28;20217;-60
2023/06/18 12:00:00;;;;;;;6.18;5.78;;;30.40;64.50;;;;;;5068087;28;20251;-53
2023/06/18 12:02:28;;;;;;;5.30;5.10;;;30.20;64.50;;;;;;5063000;28;20302;-54
2023/06/18 12:05:01;;;;;;;5.65;5.40;;;30.50;70.20;;;;;;5066523;28;20207;-53
2023/06/18 12:07:28;;;;;;;5.93;5.70;;;30.70;68.00;;;;;;5067481;28;20305;-63
2023/06/18 12:09:57;;;;;;;5.50;5.30;;;30.90;70.30;;;;;;5068598;28;20205;-65
2023/06/18 12:12:33;;;;;;;5.00;4.90;;;31.00;68.30;;;;;;5069606;28;20189;-70
2023/06/18 12:15:13;;;;;;;5.75;5.40;;;31.20;64.70;;;;;;5070578;28;20273;-66
2023/06/18 12:17:47;;;;;;;5.38;5.18;;;31.50;62.20;;;;;;5069659;28;20217;-67
2023/06/18 12:20:14;;;;;;;5.15;4.93;;;31.30;64.40;;;;;;5063283;28;20303;-69
2023/06/18 12:22:42;;;;;;;6.30;5.90;;;31.30;64.10;;;;;;5067401;28;20235;-64
2023/06/18 12:25:11;;;;;;;5.53;5.22;;;30.80;64.60;;;;;;5066306;28;20254;-64
2023/06/18 12:27:38;;;;;;;6.85;5.90;;;30.60;70.20;;;;;;5074155;28;20300;-53
2023/06/18 12:30:09;;;;;;;6.13;5.60;;;30.50;68.90;;;;;;5072853;28;20571;-53
2023/06/18 12:32:37;;;;;;;5.65;5.45;;;30.50;69.60;;;;;;5072122;28;20609;-53
2023/06/18 12:35:12;;;;;;;6.13;5.72;;;30.50;65.50;;;;;;5068318;28;20201;-53
2023/06/18 12:37:42;;;;;;;6.30;5.88;;;30.50;65.70;;;;;;5072848;28;20701;-53
2023/06/18 12:40:11;;;;;;;4.88;4.65;;;30.40;64.70;;;;;;5067913;28;20197;-53
2023/06/18 12:42:42;;;;;;;5.05;4.85;;;30.50;66.40;;;;;;5074864;28;20248;-53
2023/06/18 12:45:11;;;;;;;5.43;5.22;;;30.60;70.20;;;;;;5073511;28;20201;-52
2023/06/18 12:47:42;;;;;;;7.13;6.40;;;30.60;67.20;;;;;;5073880;28;20228;-52
2023/06/18 12:50:10;;;;;;;6.10;5.80;;;30.70;70.80;;;;;;5067829;28;20209;-52
2023/06/18 12:52:41;;;;;;;5.32;5.07;;;31.00;71.00;;;;;;5073549;28;20280;-53